createdAt,value
2022-12-26T00:05:27.538Z,101128.94
2022-12-26T00:07:54.959Z,101138.66
2022-12-26T00:10:22.674Z,101133.77
2022-12-26T00:12:50.241Z,101154.38
2022-12-26T00:15:17.949Z,101147.51
2022-12-26T00:17:45.584Z,101162.80
2022-12-26T00:20:13.100Z,101172.42
2022-12-26T00:22:40.907Z,101182.37
2022-12-26T00:25:08.539Z,101177.68
2022-12-26T00:27:35.885Z,101182.23
2022-12-26T00:30:05.012Z,101192.02
2022-12-26T00:32:35.035Z,101193.89
2022-12-26T00:37:27.704Z,101198.94
2022-12-26T00:39:54.420Z,101201.33
2022-12-26T00:42:21.342Z,101198.90
2022-12-26T00:44:48.291Z,101192.60
2022-12-26T00:47:15.143Z,101182.92
2022-12-26T00:50:14.251Z,101177.31
2022-12-26T00:52:28.931Z,101171.89
2022-12-26T00:54:55.729Z,101166.00
2022-12-26T00:57:22.446Z,101168.27
2022-12-26T00:59:49.364Z,101172.44
2022-12-26T01:02:34.611Z,101166.20
2022-12-26T01:05:01.505Z,101161.06
2022-12-26T01:07:28.785Z,101150.83
2022-12-26T01:09:55.481Z,101137.77
2022-12-26T01:12:22.001Z,101135.58
2022-12-26T01:14:48.768Z,101129.57
2022-12-26T01:17:15.370Z,101133.48
2022-12-26T01:19:42.001Z,101137.16
2022-12-26T01:22:08.900Z,101134.56
2022-12-26T01:24:39.715Z,101128.16
2022-12-26T01:27:06.557Z,101128.47
2022-12-26T01:29:33.222Z,101130.17
2022-12-26T01:32:00.384Z,101131.54
2022-12-26T01:34:27.042Z,101130.14
2022-12-26T01:36:53.762Z,101129.64
2022-12-26T01:39:20.600Z,101135.41
2022-12-26T01:41:47.730Z,101136.14
2022-12-26T01:44:52.913Z,101139.08
2022-12-26T01:47:22.947Z,101137.68
2022-12-26T01:49:53.706Z,101141.51
2022-12-26T01:52:44.967Z,101146.67
2022-12-26T01:55:16.592Z,101154.27
2022-12-26T01:57:49.657Z,101159.95
2022-12-26T02:00:16.611Z,101159.21
2022-12-26T02:03:01.965Z,101159.23
2022-12-26T02:05:33.775Z,101149.98
2022-12-26T02:08:23.416Z,101148.08
2022-12-26T02:10:56.366Z,101149.70
2022-12-26T02:13:23.516Z,101148.68
2022-12-26T02:15:50.491Z,101145.59
2022-12-26T02:18:19.938Z,101155.95
2022-12-26T02:21:04.223Z,101162.11
2022-12-26T02:23:40.990Z,101165.88
2022-12-26T02:26:26.202Z,101169.70
2022-12-26T02:29:25.060Z,101165.13
2022-12-26T02:32:07.078Z,101163.14
2022-12-26T02:35:10.641Z,101155.42
2022-12-26T02:37:55.845Z,101150.42
2022-12-26T02:40:47.838Z,101149.41
2022-12-26T02:43:26.500Z,101146.80
2022-12-26T02:46:44.158Z,101144.16
2022-12-26T02:49:13.554Z,101147.45
2022-12-26T02:52:28.305Z,101144.21
2022-12-26T02:55:27.417Z,101149.20
2022-12-26T02:58:22.375Z,101149.48
2022-12-26T03:01:12.724Z,101150.09
2022-12-26T03:03:59.604Z,101149.39
2022-12-26T03:06:49.669Z,101146.05
2022-12-26T03:09:43.511Z,101144.48
2022-12-26T03:12:38.313Z,101143.68
2022-12-26T03:15:09.822Z,101137.29
2022-12-26T03:17:43.839Z,101138.19
2022-12-26T03:20:23.291Z,101143.55
2022-12-26T03:23:12.367Z,101147.98
2022-12-26T03:26:18.987Z,101145.79
2022-12-26T03:28:47.485Z,101139.23
2022-12-26T03:31:15.203Z,101139.08
2022-12-26T03:34:03.684Z,101136.40
2022-12-26T03:36:54.580Z,101134.13
2022-12-26T03:40:27.685Z,101143.66
2022-12-26T03:43:25.048Z,101147.81
2022-12-26T03:46:28.485Z,101143.02
2022-12-26T03:49:30.037Z,101147.94
2022-12-26T03:52:25.070Z,101143.39
2022-12-26T03:55:37.241Z,101149.80
2022-12-26T03:59:14.100Z,101156.36
2022-12-26T04:02:01.933Z,101162.84
2022-12-26T04:04:51.261Z,101171.79
2022-12-26T04:07:56.605Z,101173.91
2022-12-26T04:10:51.330Z,101175.33
2022-12-26T04:13:49.008Z,101176.02
2022-12-26T04:16:39.232Z,101182.58
2022-12-26T04:19:27.096Z,101186.48
2022-12-26T04:22:42.866Z,101189.77
2022-12-26T04:25:49.439Z,101189.20
2022-12-26T04:28:39.306Z,101195.02
2022-12-26T04:31:32.325Z,101196.16
2022-12-26T04:34:27.598Z,101192.44
2022-12-26T04:37:19.882Z,101186.50
2022-12-26T04:40:09.186Z,101182.55
2022-12-26T04:42:56.240Z,101176.90
2022-12-26T04:45:23.360Z,101174.03
2022-12-26T04:48:08.911Z,101170.87
2022-12-26T04:50:35.710Z,101175.38
2022-12-26T04:53:02.674Z,101176.33
2022-12-26T04:55:31.826Z,101174.25
2022-12-26T04:57:59.367Z,101173.62
2022-12-26T05:00:28.470Z,101182.92
2022-12-26T05:03:18.790Z,101188.43
2022-12-26T05:06:07.414Z,101182.04
2022-12-26T05:08:59.774Z,101181.36
2022-12-26T05:11:31.166Z,101186.42
2022-12-26T05:13:58.935Z,101188.73
2022-12-26T05:16:45.599Z,101191.33
2022-12-26T05:19:32.433Z,101196.09
2022-12-26T05:22:20.109Z,101205.38
2022-12-26T05:25:06.030Z,101207.71
2022-12-26T05:28:00.483Z,101203.27
2022-12-26T05:30:28.035Z,101205.29
2022-12-26T05:33:13.315Z,101206.55
2022-12-26T05:35:41.514Z,101213.67
2022-12-26T05:38:10.398Z,101219.01
2022-12-26T05:40:37.772Z,101220.59
2022-12-26T05:43:04.773Z,101228.48
2022-12-26T05:45:31.955Z,101229.54
2022-12-26T05:48:00.339Z,101238.81
2022-12-26T05:50:28.014Z,101235.46
2022-12-26T05:52:58.823Z,101234.73
2022-12-26T05:55:26.204Z,101230.21
2022-12-26T05:57:55.862Z,101233.27
2022-12-26T06:00:22.823Z,101233.17
2022-12-26T06:02:50.238Z,101233.38
2022-12-26T06:05:17.747Z,101221.45
2022-12-26T06:07:44.453Z,101221.94
2022-12-26T06:10:11.886Z,101222.73
2022-12-26T06:12:39.015Z,101227.23
2022-12-26T06:15:06.839Z,101228.36
2022-12-26T06:17:33.504Z,101229.34
2022-12-26T06:20:01.310Z,101234.70
2022-12-26T06:22:30.512Z,101238.20
2022-12-26T06:24:57.452Z,101239.59
2022-12-26T06:27:24.254Z,101242.64
2022-12-26T06:29:51.264Z,101241.62
2022-12-26T06:32:17.925Z,101240.54
2022-12-26T06:34:45.776Z,101236.45
2022-12-26T06:37:12.569Z,101231.77
2022-12-26T06:39:39.625Z,101228.73
2022-12-26T06:42:06.359Z,101224.40
2022-12-26T06:44:33.727Z,101224.86
2022-12-26T06:47:00.757Z,101231.13
2022-12-26T06:49:32.421Z,101227.33
2022-12-26T06:52:00.126Z,101229.52
2022-12-26T06:57:29.689Z,101221.14
2022-12-26T07:00:00.398Z,101213.86
2022-12-26T07:02:28.584Z,101214.95
2022-12-26T07:04:56.842Z,101206.39
2022-12-26T07:07:24.132Z,101214.63
2022-12-26T07:09:51.426Z,101213.61
2022-12-26T07:12:24.982Z,101217.96
2022-12-26T07:15:01.340Z,101222.25
2022-12-26T07:17:34.046Z,101231.27
2022-12-26T07:20:01.797Z,101232.27
2022-12-26T07:22:29.080Z,101229.17
2022-12-26T07:24:56.903Z,101233.48
2022-12-26T07:27:24.471Z,101229.23
2022-12-26T07:29:53.830Z,101233.91
2022-12-26T07:32:24.192Z,101240.62
2022-12-26T07:34:51.063Z,101247.53
2022-12-26T07:37:18.365Z,101248.41
2022-12-26T07:39:46.010Z,101243.30
2022-12-26T07:42:13.205Z,101243.86
2022-12-26T07:44:41.581Z,101249.67
2022-12-26T07:47:12.029Z,101244.08
2022-12-26T07:49:40.058Z,101245.56
2022-12-26T07:52:07.424Z,101231.99
2022-12-26T07:54:34.986Z,101251.19
2022-12-26T07:57:29.847Z,101253.96
2022-12-26T07:59:53.212Z,101252.99
2022-12-26T08:02:22.442Z,101247.69
2022-12-26T08:04:49.541Z,101246.02
2022-12-26T08:07:16.620Z,101247.23
2022-12-26T08:09:44.974Z,101251.40
2022-12-26T08:12:13.196Z,101251.73
2022-12-26T08:14:40.771Z,101248.83
2022-12-26T08:17:08.217Z,101245.66
2022-12-26T08:19:35.109Z,101246.70
2022-12-26T08:22:01.910Z,101246.96
2022-12-26T08:24:28.757Z,101244.52
2022-12-26T08:26:55.901Z,101239.99
2022-12-26T08:29:22.887Z,101238.91
2022-12-26T08:31:50.483Z,101236.34
2022-12-26T08:34:17.534Z,101243.00
2022-12-26T08:36:50.700Z,101244.14
2022-12-26T08:39:18.363Z,101233.09
2022-12-26T08:41:44.974Z,101230.30
2022-12-26T08:44:28.627Z,101226.79
2022-12-26T08:46:56.930Z,101226.55
2022-12-26T08:49:23.813Z,101224.67
2022-12-26T08:51:51.075Z,101221.42
2022-12-26T08:54:18.100Z,101218.71
2022-12-26T08:56:45.569Z,101213.30
2022-12-26T08:59:12.762Z,101209.38
2022-12-26T09:01:40.190Z,101207.27
2022-12-26T09:04:07.137Z,101209.05
2022-12-26T09:06:36.401Z,101210.27
2022-12-26T09:09:05.567Z,101215.38
2022-12-26T09:11:33.408Z,101216.39
2022-12-26T09:14:03.493Z,101212.31
2022-12-26T09:16:40.030Z,101208.25
2022-12-26T09:19:14.167Z,101212.25
2022-12-26T09:21:41.074Z,101215.30
2022-12-26T09:24:12.255Z,101223.77
2022-12-26T09:26:39.563Z,101224.25
2022-12-26T09:29:07.161Z,101221.68
2022-12-26T09:31:34.744Z,101229.32
2022-12-26T09:34:05.749Z,101232.28
2022-12-26T09:36:37.566Z,101233.85
2022-12-26T09:39:05.338Z,101233.67
2022-12-26T09:42:09.649Z,101235.35
2022-12-26T09:44:47.779Z,101234.66
2022-12-26T09:47:33.046Z,101235.60
2022-12-26T09:50:23.363Z,101229.96
2022-12-26T09:52:54.127Z,101225.65
2022-12-26T09:55:42.114Z,101232.20
2022-12-26T09:58:20.758Z,101232.50
2022-12-26T10:01:25.152Z,101229.46
2022-12-26T10:03:58.034Z,101217.30
2022-12-26T10:06:29.342Z,101220.23
2022-12-26T10:09:12.168Z,101221.95
2022-12-26T10:12:05.002Z,101218.58
2022-12-26T10:14:38.359Z,101209.75
2022-12-26T10:17:23.873Z,101207.29
2022-12-26T10:20:24.538Z,101198.54
2022-12-26T10:22:51.173Z,101196.84
2022-12-26T10:25:27.537Z,101193.25
2022-12-26T10:28:00.050Z,101187.23
2022-12-26T10:30:36.184Z,101190.63
2022-12-26T10:33:15.713Z,101191.25
2022-12-26T10:35:43.939Z,101189.15
2022-12-26T10:38:22.678Z,101176.08
2022-12-26T10:40:55.698Z,101168.20
2022-12-26T10:43:34.240Z,101159.84
2022-12-26T10:46:33.124Z,101161.66
2022-12-26T10:49:00.117Z,101159.52
2022-12-26T10:51:27.160Z,101156.89
2022-12-26T10:53:54.509Z,101159.19
2022-12-26T10:56:23.208Z,101154.19
2022-12-26T10:59:00.322Z,101156.42
2022-12-26T11:01:27.908Z,101153.39
2022-12-26T11:04:00.938Z,101141.29
2022-12-26T11:06:36.336Z,101141.36
2022-12-26T11:09:03.943Z,101135.29
2022-12-26T11:11:47.831Z,101128.54
2022-12-26T11:14:34.222Z,101126.25
2022-12-26T11:17:05.528Z,101115.84
2022-12-26T11:19:43.800Z,101109.59
2022-12-26T11:22:13.552Z,101106.28
2022-12-26T11:24:40.352Z,101099.56
2022-12-26T11:27:23.373Z,101098.84
2022-12-26T11:29:50.063Z,101094.02
2022-12-26T11:32:19.835Z,101092.30
2022-12-26T11:34:48.519Z,101089.01
2022-12-26T11:37:26.830Z,101083.57
2022-12-26T11:39:54.878Z,101085.10
2022-12-26T11:42:24.659Z,101082.71
2022-12-26T11:44:54.657Z,101084.23
2022-12-26T11:47:30.876Z,101085.35
2022-12-26T11:49:57.542Z,101082.81
2022-12-26T11:52:51.043Z,101086.27
2022-12-26T11:55:24.204Z,101083.92
2022-12-26T11:58:16.662Z,101083.20
2022-12-26T12:01:05.188Z,101083.19
2022-12-26T12:03:35.739Z,101077.39
2022-12-26T12:06:28.597Z,101076.43
2022-12-26T12:09:07.303Z,101076.50
2022-12-26T12:11:58.812Z,101074.56
2022-12-26T12:14:54.381Z,101071.54
2022-12-26T12:17:35.136Z,101072.52
2022-12-26T12:20:35.474Z,101069.11
2022-12-26T12:23:21.583Z,101069.06
2022-12-26T12:26:12.400Z,101064.80
2022-12-26T12:28:48.037Z,101061.55
2022-12-26T12:31:41.855Z,101054.59
2022-12-26T12:34:30.321Z,101050.23
2022-12-26T12:37:24.827Z,101054.61
2022-12-26T12:40:12.952Z,101052.70
2022-12-26T12:43:08.020Z,101045.92
2022-12-26T12:46:02.494Z,101044.33
2022-12-26T12:48:45.507Z,101047.34
2022-12-26T12:51:28.076Z,101043.08
2022-12-26T12:54:46.228Z,101038.08
2022-12-26T12:57:18.545Z,101044.05
2022-12-26T13:00:00.321Z,101043.05
2022-12-26T13:02:39.987Z,101037.65
2022-12-26T13:05:25.691Z,101041.16
2022-12-26T13:08:01.431Z,101041.77
2022-12-26T13:10:34.780Z,101040.42
2022-12-26T13:13:16.406Z,101035.95
2022-12-26T13:15:48.417Z,101034.97
2022-12-26T13:18:19.792Z,101030.64
2022-12-26T13:20:52.346Z,101027.45
2022-12-26T13:23:55.889Z,101026.04
2022-12-26T13:26:39.374Z,101018.35
2022-12-26T13:29:09.148Z,101019.05
2022-12-26T13:31:37.990Z,101024.27
2022-12-26T13:34:10.772Z,101033.48
2022-12-26T13:36:40.378Z,101034.67
2022-12-26T13:39:28.166Z,101032.92
2022-12-26T13:42:23.983Z,101030.64
2022-12-26T13:44:53.724Z,101032.73
2022-12-26T13:47:36.456Z,101032.20
2022-12-26T13:50:49.995Z,101032.37
2022-12-26T13:53:28.351Z,101030.38
2022-12-26T13:56:04.358Z,101033.15
2022-12-26T13:58:54.062Z,101033.53
2022-12-26T14:01:23.833Z,101028.23
2022-12-26T14:04:19.807Z,101033.97
2022-12-26T14:07:10.991Z,101035.23
2022-12-26T14:09:58.871Z,101033.10
2022-12-26T14:12:28.799Z,101030.61
2022-12-26T14:15:27.469Z,101026.73
2022-12-26T14:18:16.378Z,101027.55
2022-12-26T14:20:57.002Z,101029.85
2022-12-26T14:23:30.458Z,101032.63
2022-12-26T14:26:18.853Z,101024.80
2022-12-26T14:29:19.961Z,101026.27
2022-12-26T14:32:05.393Z,101027.45
2022-12-26T14:34:52.241Z,101027.70
2022-12-26T14:38:14.005Z,101021.21
2022-12-26T14:41:06.036Z,101020.06
2022-12-26T14:43:42.926Z,101024.38
2022-12-26T14:46:31.943Z,101027.30
2022-12-26T14:49:18.828Z,101030.17
2022-12-26T14:51:48.843Z,101033.98
2022-12-26T14:54:22.204Z,101027.67
2022-12-26T14:56:51.366Z,101026.00
2022-12-26T14:59:24.507Z,101022.38
2022-12-26T15:02:09.622Z,101026.20
2022-12-26T15:04:51.675Z,101027.52
2022-12-26T15:07:34.635Z,101029.80
2022-12-26T15:10:18.694Z,101024.25
2022-12-26T15:13:22.395Z,101025.30
2022-12-26T15:16:07.281Z,101022.98
2022-12-26T15:19:07.607Z,101022.92
2022-12-26T15:21:54.082Z,101020.84
2022-12-26T15:25:16.500Z,101017.64
2022-12-26T15:27:38.274Z,101012.42
2022-12-26T15:30:16.362Z,101009.11
2022-12-26T15:33:10.145Z,101013.75
2022-12-26T15:36:07.655Z,101013.71
2022-12-26T15:38:47.325Z,101017.16
2022-12-26T15:41:46.654Z,101022.29
2022-12-26T15:44:31.840Z,101018.59
2022-12-26T15:47:18.799Z,101022.05
2022-12-26T15:50:27.447Z,101019.71
2022-12-26T15:52:58.557Z,101017.36
2022-12-26T15:56:08.069Z,101024.66
2022-12-26T15:58:57.467Z,101027.33
2022-12-26T16:01:35.867Z,101021.61
2022-12-26T16:04:12.658Z,101019.57
2022-12-26T16:11:34.436Z,101018.27
2022-12-26T16:14:07.361Z,101008.98
2022-12-26T16:16:38.504Z,101014.23
2022-12-26T16:26:30.775Z,101021.76
2022-12-26T16:37:03.911Z,101019.56
2022-12-26T16:49:26.499Z,101008.84
2022-12-26T16:52:57.389Z,101001.48
2022-12-26T17:03:29.485Z,101002.23
2022-12-26T17:06:50.172Z,101009.95
2022-12-26T17:10:18.889Z,101005.13
2022-12-26T17:19:21.322Z,101004.70
2022-12-26T17:22:15.436Z,101002.89
2022-12-26T17:28:06.056Z,100996.91
2022-12-26T17:30:58.708Z,100994.05
2022-12-26T17:40:47.938Z,100997.80
2022-12-26T17:43:48.200Z,101000.83
2022-12-26T17:46:19.516Z,100999.95
2022-12-26T17:48:47.279Z,101003.20
2022-12-26T17:51:17.447Z,101004.95
2022-12-26T17:53:50.396Z,101005.02
2022-12-26T17:59:41.875Z,100996.60
2022-12-26T18:05:49.668Z,100995.55
2022-12-26T18:08:59.823Z,100993.10
2022-12-26T18:11:27.518Z,100977.62
2022-12-26T18:15:01.312Z,100995.47
2022-12-26T18:17:33.046Z,100991.90
2022-12-26T18:20:03.235Z,100985.97
2022-12-26T18:22:31.075Z,100973.36
2022-12-26T18:24:59.297Z,100982.55
2022-12-26T18:27:33.191Z,100971.80
2022-12-26T18:43:51.929Z,100962.57
2022-12-26T18:46:25.303Z,100960.36
2022-12-26T19:39:51.981Z,100925.43
2022-12-26T19:42:22.134Z,100927.13
2022-12-26T19:44:50.635Z,100916.36
2022-12-26T19:56:42.601Z,100912.79
2022-12-26T19:59:12.808Z,100913.09
2022-12-26T20:04:56.965Z,100906.27
2022-12-26T20:14:26.400Z,100895.80
2022-12-26T20:17:08.056Z,100893.98
2022-12-26T20:19:37.125Z,100888.38
2022-12-26T20:22:05.257Z,100869.11
2022-12-26T20:24:33.301Z,100862.54
2022-12-26T20:30:09.100Z,100875.39
2022-12-26T20:32:43.737Z,100889.20
2022-12-26T20:35:11.397Z,100889.06
2022-12-26T20:37:39.078Z,100894.81
2022-12-26T20:49:54.566Z,100872.15
2022-12-26T20:52:22.451Z,100889.69
2022-12-26T20:55:23.546Z,100872.48
2022-12-26T21:17:00.111Z,100867.17
2022-12-26T21:19:29.643Z,100871.46
2022-12-26T21:21:57.208Z,100875.89
2022-12-26T21:24:28.823Z,100866.05
2022-12-26T21:26:57.163Z,100870.05
2022-12-26T21:53:51.934Z,100880.64
2022-12-26T21:56:19.297Z,100875.39
2022-12-26T21:59:07.028Z,100865.33
